Ercan, Cyprus

1:28 PM EEST on July 29, 2015 (GMT +0300)
Ercan | | Change Station
CLOSE
Current Station
Airport
Location: Ercan,
Elevation: 299 ft
Nearby Weather Stations

Elev 299 ft 35.15 °N, 33.50 °E | Updated 38 minutes ago

Partly Cloudy
Partly Cloudy
95 °F
Feels Like 96 °F
N
12
Wind Variable Wind from SSE

Today
High -- | Low -- °F
--% Chance of Precip.
Yesterday
High -- | Low -- °F
Precip. -- in
5:52 AM 7:52 PM
Waxing Gibbous, 95% visible
Pressure 29.68 in
Visibility 6.2 miles
Clouds Few 2500 ft
Heat Index 96 °F
Dew Point 63 °F
Humidity 34%
Rainfall 0.00 in
Snow Depth Not available.
UV 12 out of 12
Pollen Not available.
Air Quality Not available.
Flu Activity Not available.
METAR LCEN 290950Z 15010KT 100V190 9999 FEW025 35/17 Q1005 NOSIG

More Conditions Fewer Conditions

Pressure 29.68 in
Visibility 6.2 miles
Clouds Few 2500 ft
Heat Index 96 °F
Dew Point 63 °F
Humidity 34%
Rainfall 0.00 in
Snow Depth Not available.
UV 12 out of 12
Pollen Not available.
Air Quality Not available.
Flu Activity Not available.
METAR LCEN 290950Z 15010KT 100V190 9999 FEW025 35/17 Q1005 NOSIG

More Conditions Fewer Conditions

10-Day Weather Forecast

×

Almanac

Astronomy

Jul. 29, 2015 Rise Set
Actual Time
Civil Twilight
Nautical Twilight
Astronomical Twilight
Moon
Length of Visible Light
Length of Day
Tomorrow will be .
, % of the Moon is Illuminated

Today's Extremes

Country Highs Country Lows

Community

WunderPhotos

Upload Photos

1,842,069 photos uploaded!

WunderBlogs® & News

Nearby

Air Quality

  Air Quality AQ Index Pollutant
Not available.

Snow Depth

Station Depth Elevation

Earthquake Activity

City Distance Mag. Time & Date
Minimum magnitude displayed is 2.5.

Coastal Water Temperatures

Place Temperature

Stations

Nearby Weather Stations

Station Location Temp. Windchill Dew Point Humidity Wind Precip. Elev Updated Type